Time;durP1;ratioP1;P1;durP2;ratioP2;P2;SDS_P1;SDS_P2;PMS_P1;PMS_P2;Temp;Humidity;BMP_temperature;BMP_pressure;BME280_temperature;BME280_humidity;BME280_pressure;Samples;Min_cycle;Max_cycle;Signal;HPM_P1;HPM_P2
2021/06/02 00:00:42;;;;;;;3.17;1.90;;;16.30;99.90;;;;;;4932853;29;20279;-78
2021/06/02 00:03:09;;;;;;;2.37;1.87;;;16.30;99.90;;;;;;4933261;29;20343;-77
2021/06/02 00:05:34;;;;;;;3.33;2.17;;;16.30;99.90;;;;;;4933167;29;20217;-78
2021/06/02 00:08:00;;;;;;;2.87;1.90;;;16.30;99.90;;;;;;4932795;29;20175;-77
2021/06/02 00:10:26;;;;;;;4.43;2.27;;;16.20;99.90;;;;;;4932976;29;20214;-78
2021/06/02 00:12:52;;;;;;;3.97;2.20;;;16.20;99.90;;;;;;4932961;29;20667;-78
2021/06/02 00:15:17;;;;;;;2.73;2.00;;;16.20;99.90;;;;;;4934266;29;20186;-77
2021/06/02 00:17:43;;;;;;;3.10;1.93;;;16.20;99.90;;;;;;4936567;29;20193;-78
2021/06/02 00:20:09;;;;;;;3.00;2.20;;;16.20;99.90;;;;;;4936173;29;20197;-78
2021/06/02 00:22:35;;;;;;;2.90;2.10;;;16.20;99.90;;;;;;4936045;29;20189;-77
2021/06/02 00:25:00;;;;;;;6.13;2.03;;;16.20;99.90;;;;;;4936487;29;20214;-77
2021/06/02 00:27:26;;;;;;;3.20;2.30;;;16.20;99.90;;;;;;4936460;29;20209;-78
2021/06/02 00:29:52;;;;;;;2.63;2.27;;;16.20;99.90;;;;;;4936302;29;20638;-77
2021/06/02 00:32:19;;;;;;;3.27;2.10;;;16.30;99.90;;;;;;4936315;29;20194;-78
2021/06/02 00:34:46;;;;;;;3.33;2.10;;;16.30;99.90;;;;;;4936231;29;20186;-77
2021/06/02 00:37:11;;;;;;;4.07;2.30;;;16.30;99.90;;;;;;4936069;29;20229;-78
2021/06/02 00:39:37;;;;;;;2.97;2.30;;;16.40;99.90;;;;;;4935989;29;20675;-77
2021/06/02 00:42:03;;;;;;;4.17;2.43;;;16.40;99.90;;;;;;4936335;29;20716;-77
2021/06/02 00:44:28;;;;;;;5.83;2.60;;;16.50;99.90;;;;;;4935890;29;20665;-78
2021/06/02 00:46:56;;;;;;;3.53;2.33;;;16.60;99.90;;;;;;4936006;29;20268;-77
2021/06/02 00:49:23;;;;;;;3.70;2.07;;;16.70;99.90;;;;;;4935568;29;20183;-78
2021/06/02 00:51:55;;;;;;;3.57;2.10;;;16.70;99.90;;;;;;4935796;29;20704;-78
2021/06/02 00:54:21;;;;;;;3.30;2.40;;;16.80;99.90;;;;;;4936170;29;20509;-78
2021/06/02 00:56:51;;;;;;;3.90;2.40;;;16.90;99.90;;;;;;4935857;29;20171;-77
2021/06/02 00:59:18;;;;;;;3.67;2.40;;;16.90;99.90;;;;;;4935493;29;20180;-78
2021/06/02 01:01:44;;;;;;;3.37;2.07;;;16.90;99.90;;;;;;4935618;29;20205;-78
2021/06/02 01:04:09;;;;;;;3.80;2.30;;;16.90;99.90;;;;;;4935580;29;20545;-78
2021/06/02 01:06:35;;;;;;;3.57;2.43;;;16.90;99.90;;;;;;4935590;29;20581;-77
2021/06/02 01:09:02;;;;;;;3.23;2.03;;;16.80;99.90;;;;;;4935784;29;20179;-77
2021/06/02 01:11:28;;;;;;;3.73;2.43;;;16.90;99.90;;;;;;4935129;29;20379;-78
2021/06/02 01:13:55;;;;;;;5.60;2.80;;;16.80;99.90;;;;;;4935601;29;20576;-78
2021/06/02 01:16:20;;;;;;;3.10;2.27;;;16.80;99.90;;;;;;4935554;29;20179;-78
2021/06/02 01:18:47;;;;;;;3.60;2.20;;;16.80;99.90;;;;;;4935407;29;20182;-77
2021/06/02 01:21:18;;;;;;;3.97;2.20;;;16.80;99.90;;;;;;4935002;29;20198;-77
2021/06/02 01:23:43;;;;;;;6.27;2.50;;;16.90;99.90;;;;;;4935488;29;20202;-77
2021/06/02 01:26:09;;;;;;;4.03;2.53;;;16.90;99.90;;;;;;4935028;29;20766;-78
2021/06/02 01:28:34;;;;;;;3.53;2.20;;;16.90;99.90;;;;;;4935202;29;20600;-77
2021/06/02 01:31:00;;;;;;;3.50;2.40;;;16.90;99.90;;;;;;4934574;29;20574;-77
2021/06/02 01:34:00;;;;;;;5.67;2.47;;;16.90;99.90;;;;;;4935529;29;20541;-77
2021/06/02 01:37:01;;;;;;;4.30;2.10;;;16.80;99.90;;;;;;4934943;29;20664;-78
2021/06/02 01:40:00;;;;;;;4.40;2.70;;;16.70;99.90;;;;;;4912238;29;20197;-78
2021/06/02 01:42:44;;;;;;;2.67;2.23;;;16.80;99.90;;;;;;4936269;29;20228;-77
2021/06/02 01:45:40;;;;;;;3.93;2.27;;;16.80;99.90;;;;;;4934812;29;20235;-77
2021/06/02 01:48:27;;;;;;;4.03;2.47;;;16.70;99.90;;;;;;4934934;29;20182;-78
2021/06/02 01:51:20;;;;;;;5.47;2.77;;;16.60;99.90;;;;;;4934534;29;20201;-78
2021/06/02 01:53:58;;;;;;;3.73;2.57;;;16.60;99.90;;;;;;4934563;29;20177;-78
2021/06/02 01:57:07;;;;;;;2.73;2.07;;;16.50;99.90;;;;;;4936066;29;20188;-78
2021/06/02 01:59:40;;;;;;;2.73;2.10;;;16.40;99.90;;;;;;4934512;29;20182;-77
2021/06/02 02:02:27;;;;;;;3.70;2.43;;;16.40;99.90;;;;;;4934542;29;20198;-77
2021/06/02 02:05:30;;;;;;;4.80;2.53;;;16.30;99.90;;;;;;4935629;29;20277;-77
2021/06/02 02:08:04;;;;;;;4.23;2.47;;;16.20;99.90;;;;;;4935712;29;20175;-78
2021/06/02 02:10:46;;;;;;;3.40;2.60;;;16.20;99.90;;;;;;4934216;29;20566;-78
2021/06/02 02:13:36;;;;;;;2.70;2.30;;;16.10;99.90;;;;;;4934491;29;20181;-78
2021/06/02 02:16:18;;;;;;;3.50;2.27;;;16.10;99.90;;;;;;4935424;29;20202;-77
2021/06/02 02:19:11;;;;;;;3.40;2.40;;;16.00;99.90;;;;;;4934407;29;20189;-78
2021/06/02 02:21:42;;;;;;;3.40;2.67;;;15.90;99.90;;;;;;4934241;29;20227;-78
2021/06/02 02:24:10;;;;;;;3.57;2.53;;;16.00;99.90;;;;;;4934409;29;20178;-78
2021/06/02 02:26:45;;;;;;;3.57;2.43;;;15.90;99.90;;;;;;4935326;29;20669;-78
2021/06/02 02:29:32;;;;;;;3.97;2.47;;;15.90;99.90;;;;;;4933745;29;20185;-78
2021/06/02 02:32:15;;;;;;;3.77;2.60;;;15.90;99.90;;;;;;4934193;29;20196;-78
2021/06/02 02:35:02;;;;;;;3.73;2.70;;;15.90;99.90;;;;;;4934042;29;20189;-77
2021/06/02 02:37:43;;;;;;;3.67;2.50;;;15.80;99.90;;;;;;4935522;29;20412;-78
2021/06/02 02:40:31;;;;;;;3.00;2.10;;;15.80;99.90;;;;;;4933349;29;20184;-78
2021/06/02 02:42:59;;;;;;;3.43;2.40;;;15.80;99.90;;;;;;4934056;29;20685;-78
2021/06/02 02:45:35;;;;;;;4.47;2.50;;;15.80;99.90;;;;;;4933804;29;20757;-77
2021/06/02 02:48:20;;;;;;;3.23;2.47;;;15.70;99.90;;;;;;4933268;29;20549;-77
2021/06/02 02:51:04;;;;;;;3.23;2.37;;;15.70;99.90;;;;;;4933853;29;20198;-78
2021/06/02 02:53:57;;;;;;;3.77;2.40;;;15.60;99.90;;;;;;4933641;29;20680;-77
2021/06/02 02:56:26;;;;;;;3.50;2.30;;;15.60;99.90;;;;;;4935180;29;20558;-79
2021/06/02 02:59:23;;;;;;;4.27;2.63;;;15.50;99.90;;;;;;4933268;29;20578;-78
2021/06/02 03:01:58;;;;;;;3.03;2.03;;;15.50;99.90;;;;;;4933658;29;20206;-77
2021/06/02 03:04:25;;;;;;;3.60;2.37;;;15.40;99.90;;;;;;4933692;29;20190;-78
2021/06/02 03:06:53;;;;;;;3.90;2.67;;;15.30;99.90;;;;;;4934000;29;20546;-78
2021/06/02 03:09:28;;;;;;;4.37;2.50;;;15.30;99.90;;;;;;4933686;29;20181;-78
2021/06/02 03:12:06;;;;;;;3.53;2.57;;;15.20;99.90;;;;;;4933141;29;20619;-78
2021/06/02 03:14:59;;;;;;;3.37;2.67;;;15.20;99.90;;;;;;4933411;29;20170;-77
2021/06/02 03:17:27;;;;;;;5.27;2.27;;;15.20;99.90;;;;;;4933595;29;20185;-79
2021/06/02 03:19:58;;;;;;;3.47;2.73;;;15.10;99.90;;;;;;4933255;29;20279;-78
2021/06/02 03:22:30;;;;;;;4.03;2.53;;;15.10;99.90;;;;;;4933616;29;20289;-78
2021/06/02 03:25:14;;;;;;;3.67;2.60;;;15.10;99.90;;;;;;4933569;29;20225;-78
2021/06/02 03:27:58;;;;;;;3.77;2.60;;;15.10;99.90;;;;;;4933692;29;20646;-78
2021/06/02 03:30:32;;;;;;;3.70;2.53;;;15.00;99.90;;;;;;4917575;29;20194;-78
2021/06/02 03:33:22;;;;;;;3.63;2.67;;;15.10;99.90;;;;;;4914570;29;20206;-78
2021/06/02 03:35:55;;;;;;;4.37;2.40;;;15.00;99.90;;;;;;4932633;29;20600;-78
2021/06/02 03:38:43;;;;;;;3.30;2.50;;;15.00;99.90;;;;;;4900654;29;20213;-79
2021/06/02 03:41:15;;;;;;;3.37;2.23;;;15.00;99.90;;;;;;4932870;29;20237;-79
2021/06/02 03:43:53;;;;;;;4.50;2.73;;;15.00;99.90;;;;;;4898787;29;20270;-78
2021/06/02 03:46:18;;;;;;;4.40;2.50;;;15.00;99.90;;;;;;4914360;29;20721;-78
2021/06/02 03:49:08;;;;;;;3.83;2.47;;;15.00;99.90;;;;;;4929805;29;20179;-78
2021/06/02 03:51:49;;;;;;;3.27;2.40;;;15.10;99.90;;;;;;4933429;29;20199;-78
2021/06/02 03:54:17;;;;;;;4.60;3.00;;;15.00;99.90;;;;;;4918092;29;20635;-78
2021/06/02 03:57:07;;;;;;;3.43;2.70;;;15.10;99.90;;;;;;4920116;29;20540;-79
2021/06/02 03:59:41;;;;;;;4.73;2.63;;;15.10;99.90;;;;;;4919419;29;20175;-79
2021/06/02 04:02:11;;;;;;;3.23;2.53;;;15.10;99.90;;;;;;4918001;29;20274;-79
2021/06/02 04:04:50;;;;;;;3.20;2.50;;;15.10;99.90;;;;;;4917935;29;20230;-79
2021/06/02 04:07:22;;;;;;;3.60;2.57;;;15.10;99.90;;;;;;4936596;29;20657;-79
2021/06/02 04:10:00;;;;;;;4.20;2.43;;;15.10;99.90;;;;;;4921373;29;20666;-79
2021/06/02 04:13:05;;;;;;;5.47;3.00;;;15.20;99.90;;;;;;4921831;29;20202;-78
2021/06/02 04:15:31;;;;;;;3.67;2.50;;;15.20;99.90;;;;;;4937421;29;20178;-79
2021/06/02 04:17:56;;;;;;;4.47;3.30;;;15.20;99.90;;;;;;4905445;29;20186;-79
2021/06/02 04:20:22;;;;;;;3.27;2.70;;;15.30;99.90;;;;;;4921100;29;20209;-79
2021/06/02 04:22:49;;;;;;;4.70;2.90;;;15.30;99.90;;;;;;4921398;29;20188;-83
2021/06/02 04:25:15;;;;;;;4.17;2.60;;;15.30;99.90;;;;;;4906071;29;20685;-83
2021/06/02 04:27:41;;;;;;;5.10;2.73;;;15.40;99.90;;;;;;4906008;29;20186;-82
2021/06/02 04:30:07;;;;;;;3.60;2.53;;;15.40;99.90;;;;;;4905204;29;20181;-82
2021/06/02 04:32:40;;;;;;;4.97;2.77;;;15.40;99.90;;;;;;4921550;29;20216;-83
2021/06/02 04:35:07;;;;;;;3.80;2.73;;;15.50;99.90;;;;;;4905748;29;20185;-77
2021/06/02 04:37:34;;;;;;;4.47;3.00;;;15.50;99.90;;;;;;4922013;29;20182;-78
2021/06/02 04:40:01;;;;;;;4.70;2.90;;;15.50;99.90;;;;;;4920994;29;20591;-77
2021/06/02 04:42:26;;;;;;;4.40;2.67;;;15.60;99.90;;;;;;4905593;29;20196;-76
2021/06/02 04:44:52;;;;;;;4.00;2.80;;;15.60;99.90;;;;;;4905433;29;20237;-78
2021/06/02 04:47:17;;;;;;;4.47;2.87;;;15.60;99.90;;;;;;4921509;29;20182;-77
2021/06/02 04:49:49;;;;;;;5.00;3.13;;;15.70;99.90;;;;;;4905315;29;20182;-77
2021/06/02 04:52:25;;;;;;;4.83;3.10;;;15.70;99.90;;;;;;4936593;29;20289;-78
2021/06/02 04:55:21;;;;;;;5.00;3.10;;;15.70;99.90;;;;;;4922505;29;20245;-78
2021/06/02 04:58:09;;;;;;;4.33;2.73;;;15.90;99.90;;;;;;4937196;29;20186;-77
2021/06/02 05:01:06;;;;;;;5.10;3.13;;;16.00;99.90;;;;;;4918511;29;20210;-77
2021/06/02 05:03:56;;;;;;;6.37;2.97;;;16.20;99.90;;;;;;4917351;29;20183;-77
2021/06/02 05:06:46;;;;;;;6.70;3.00;;;16.40;99.90;;;;;;4928868;29;20206;-77
2021/06/02 05:09:14;;;;;;;5.17;3.27;;;16.50;99.90;;;;;;4929092;29;20174;-78
2021/06/02 05:12:11;;;;;;;6.07;3.47;;;16.60;99.90;;;;;;4917979;29;20255;-78
2021/06/02 05:15:04;;;;;;;4.53;3.10;;;16.70;99.90;;;;;;4917949;29;20183;-78
2021/06/02 05:17:45;;;;;;;5.03;3.50;;;16.80;99.90;;;;;;4918324;29;20207;-79
2021/06/02 05:23:51;;;;;;;3.67;2.97;;;16.90;99.90;;;;;;4918196;29;20179;-77
2021/06/02 05:26:35;;;;;;;6.37;3.53;;;17.00;99.90;;;;;;4942141;29;20217;-77
2021/06/02 05:29:22;;;;;;;5.97;2.90;;;17.20;99.90;;;;;;4954557;29;20205;-77
2021/06/02 05:32:15;;;;;;;3.63;3.00;;;17.30;99.90;;;;;;4961129;28;20702;-78
2021/06/02 05:35:00;;;;;;;5.07;3.40;;;17.40;99.90;;;;;;4937327;29;20186;-79
2021/06/02 05:37:56;;;;;;;5.13;3.50;;;17.60;99.90;;;;;;4936554;29;20822;-80
2021/06/02 05:40:43;;;;;;;7.57;3.70;;;17.60;99.90;;;;;;4937301;29;20202;-79
2021/06/02 05:43:40;;;;;;;5.73;3.13;;;17.70;99.90;;;;;;4936811;29;20269;-79
2021/06/02 05:46:56;;;;;;;4.17;3.03;;;17.80;99.90;;;;;;4937702;29;20229;-78
2021/06/02 05:49:50;;;;;;;3.93;3.03;;;18.10;99.90;;;;;;4923940;29;20200;-80
2021/06/02 05:52:42;;;;;;;5.93;3.07;;;18.30;99.90;;;;;;4941489;29;20253;-81
2021/06/02 05:55:24;;;;;;;5.83;3.30;;;18.40;99.90;;;;;;4938062;29;20181;-80
2021/06/02 05:58:25;;;;;;;5.30;3.43;;;18.40;99.90;;;;;;4937929;29;20332;-80
2021/06/02 06:01:13;;;;;;;5.00;3.67;;;18.40;99.90;;;;;;4900492;29;20682;-80
2021/06/02 06:03:57;;;;;;;4.63;3.07;;;18.50;99.90;;;;;;4929560;29;20439;-80
2021/06/02 06:06:47;;;;;;;4.87;3.13;;;19.00;99.90;;;;;;4949536;29;20202;-80
2021/06/02 06:09:51;;;;;;;7.60;3.00;;;19.80;99.90;;;;;;4955113;29;20288;-80
2021/06/02 06:12:45;;;;;;;6.57;3.17;;;20.40;99.90;;;;;;4937750;29;20238;-80
2021/06/02 06:15:29;;;;;;;6.17;3.13;;;20.90;99.90;;;;;;4943391;29;20193;-80
2021/06/02 06:18:22;;;;;;;6.63;2.80;;;21.30;99.90;;;;;;4957435;29;20626;-80
2021/06/02 06:21:00;;;;;;;4.67;2.83;;;22.10;99.90;;;;;;4956528;29;20210;-80
2021/06/02 06:23:53;;;;;;;4.50;3.13;;;22.10;99.90;;;;;;4949471;29;20202;-80
2021/06/02 06:26:25;;;;;;;4.80;3.30;;;21.60;99.90;;;;;;4939674;29;20657;-80
2021/06/02 06:29:17;;;;;;;3.53;2.83;;;21.30;99.90;;;;;;4939686;29;20182;-80
2021/06/02 06:31:44;;;;;;;5.13;3.00;;;20.90;99.90;;;;;;4939042;29;20720;-80
2021/06/02 06:34:19;;;;;;;5.03;3.00;;;20.90;99.90;;;;;;4938763;29;20193;-80
2021/06/02 06:36:45;;;;;;;4.60;3.00;;;20.70;99.90;;;;;;4938489;29;20187;-80
2021/06/02 06:39:33;;;;;;;4.77;3.40;;;20.70;99.90;;;;;;4938918;29;20218;-80
2021/06/02 06:41:58;;;;;;;6.17;3.37;;;20.60;99.90;;;;;;4939513;29;20206;-80
2021/06/02 06:44:24;;;;;;;4.53;3.07;;;20.50;99.90;;;;;;4940100;29;20190;-80
2021/06/02 06:46:53;;;;;;;5.43;3.37;;;20.30;99.90;;;;;;4907350;29;20206;-80
2021/06/02 06:49:19;;;;;;;6.07;3.67;;;20.30;99.90;;;;;;4905804;29;20241;-80
2021/06/02 06:51:52;;;;;;;6.17;3.50;;;20.30;99.90;;;;;;4935861;29;20659;-80
2021/06/02 06:54:17;;;;;;;5.47;3.27;;;20.30;99.90;;;;;;4936070;29;20191;-79
2021/06/02 06:56:44;;;;;;;6.00;3.67;;;20.30;99.90;;;;;;4938996;29;20178;-79
2021/06/02 06:59:10;;;;;;;5.47;3.40;;;20.60;99.90;;;;;;4937736;29;20281;-80
2021/06/02 07:01:37;;;;;;;5.80;3.17;;;20.90;99.90;;;;;;4937162;29;20333;-79
2021/06/02 07:04:03;;;;;;;4.80;3.40;;;21.20;99.90;;;;;;4936976;29;20555;-79
2021/06/02 07:06:29;;;;;;;4.57;3.43;;;21.50;99.90;;;;;;4936518;29;20686;-79
2021/06/02 07:08:55;;;;;;;5.13;3.53;;;22.00;99.90;;;;;;4906595;29;20281;-84
2021/06/02 07:11:20;;;;;;;4.60;2.97;;;22.20;99.90;;;;;;4903620;29;20653;-82
2021/06/02 07:13:46;;;;;;;3.77;2.73;;;22.40;99.90;;;;;;4936243;29;20210;-82
2021/06/02 07:16:12;;;;;;;4.40;3.00;;;22.80;99.90;;;;;;4931928;29;20187;-82
2021/06/02 07:18:39;;;;;;;4.30;2.50;;;23.00;99.90;;;;;;4931161;29;20208;-78
2021/06/02 07:21:05;;;;;;;3.80;2.60;;;23.10;99.90;;;;;;4918613;29;20249;-77
2021/06/02 07:23:31;;;;;;;4.40;2.77;;;23.10;99.90;;;;;;4903651;29;20182;-77
2021/06/02 07:25:58;;;;;;;3.50;2.53;;;23.00;99.90;;;;;;4923077;29;20249;-77
2021/06/02 07:28:34;;;;;;;4.83;2.93;;;22.90;99.90;;;;;;4922870;29;20182;-77
2021/06/02 07:31:00;;;;;;;3.57;2.60;;;22.80;99.90;;;;;;4925236;29;20194;-76
2021/06/02 07:33:26;;;;;;;3.67;2.40;;;22.80;99.90;;;;;;4905926;29;20186;-77
2021/06/02 07:35:51;;;;;;;4.17;2.30;;;23.00;99.90;;;;;;4922885;29;20224;-77
2021/06/02 07:38:17;;;;;;;6.33;2.60;;;22.90;99.90;;;;;;4938628;29;20186;-76
2021/06/02 07:40:43;;;;;;;4.23;2.80;;;22.70;99.90;;;;;;4906652;29;20612;-75
2021/06/02 07:43:08;;;;;;;4.07;2.40;;;22.50;99.90;;;;;;4922606;29;20681;-77
2021/06/02 07:45:34;;;;;;;4.23;2.77;;;22.60;99.90;;;;;;4922744;29;20210;-77
2021/06/02 07:47:59;;;;;;;3.83;2.50;;;22.70;99.90;;;;;;4922696;29;20642;-77
2021/06/02 07:50:25;;;;;;;4.17;2.70;;;22.60;99.90;;;;;;4922376;29;20208;-77
2021/06/02 07:52:50;;;;;;;4.03;2.43;;;22.40;99.90;;;;;;4938344;29;20260;-77
2021/06/02 07:55:18;;;;;;;4.80;2.70;;;22.30;99.90;;;;;;4906956;29;20273;-77
2021/06/02 07:57:44;;;;;;;3.90;2.77;;;22.40;99.90;;;;;;4907251;29;20187;-77
2021/06/02 08:00:10;;;;;;;5.00;2.73;;;22.40;99.90;;;;;;4922364;29;20178;-77
2021/06/02 08:02:36;;;;;;;4.30;3.07;;;22.40;99.90;;;;;;4922457;29;20281;-77
2021/06/02 08:05:01;;;;;;;3.97;2.80;;;22.40;99.90;;;;;;4906056;29;20293;-77
2021/06/02 08:07:27;;;;;;;7.07;3.00;;;22.20;99.90;;;;;;4906864;29;20182;-77
2021/06/02 08:09:52;;;;;;;5.03;3.27;;;22.20;99.90;;;;;;4921777;29;20190;-77
2021/06/02 08:12:18;;;;;;;5.00;3.10;;;22.20;99.90;;;;;;4906325;29;20273;-77
2021/06/02 08:14:43;;;;;;;5.97;2.93;;;22.20;99.90;;;;;;4906461;29;20269;-77
2021/06/02 08:17:09;;;;;;;7.00;3.33;;;22.10;99.90;;;;;;4937817;29;20565;-78
2021/06/02 08:19:34;;;;;;;4.00;2.90;;;22.20;99.90;;;;;;4922397;29;20597;-77
2021/06/02 08:22:00;;;;;;;3.90;2.90;;;22.20;99.90;;;;;;4921922;29;20658;-77
2021/06/02 08:24:25;;;;;;;4.27;3.10;;;22.40;99.90;;;;;;4922221;29;20175;-77
2021/06/02 08:26:51;;;;;;;5.77;2.60;;;22.50;99.90;;;;;;4922239;29;20210;-77
2021/06/02 08:29:17;;;;;;;5.17;3.03;;;22.60;99.90;;;;;;4922490;29;20178;-77
2021/06/02 08:31:42;;;;;;;4.80;3.23;;;22.70;99.90;;;;;;4921957;29;20537;-77
2021/06/02 08:34:08;;;;;;;5.07;3.47;;;22.60;99.90;;;;;;4906022;29;20230;-77
2021/06/02 08:36:34;;;;;;;5.37;3.17;;;22.60;99.90;;;;;;4922033;29;20266;-77
2021/06/02 08:38:59;;;;;;;5.27;3.40;;;22.70;99.90;;;;;;4911039;29;20190;-81
2021/06/02 08:41:25;;;;;;;5.10;3.27;;;23.00;99.90;;;;;;4953852;28;20206;-78
2021/06/02 08:43:50;;;;;;;5.07;2.70;;;23.40;99.90;;;;;;4953690;29;20218;-78
2021/06/02 08:46:17;;;;;;;3.57;2.70;;;23.60;99.90;;;;;;4954337;29;20217;-78
2021/06/02 08:48:48;;;;;;;4.50;3.07;;;23.80;99.90;;;;;;4953662;29;20214;-80
2021/06/02 08:51:15;;;;;;;7.97;3.30;;;23.50;99.90;;;;;;4952522;29;20229;-78
2021/06/02 08:53:40;;;;;;;6.37;3.57;;;23.70;99.90;;;;;;4952897;29;20565;-78
2021/06/02 08:56:06;;;;;;;3.70;2.43;;;23.80;99.90;;;;;;4952585;29;20273;-80
2021/06/02 08:58:31;;;;;;;4.53;3.27;;;23.60;99.90;;;;;;4952954;29;20206;-78
2021/06/02 09:00:57;;;;;;;4.17;3.03;;;23.70;99.90;;;;;;4953116;29;20206;-77
2021/06/02 09:03:23;;;;;;;5.37;3.20;;;23.90;99.90;;;;;;4936897;29;20189;-78
2021/06/02 09:05:48;;;;;;;6.97;3.27;;;24.20;99.90;;;;;;4952384;29;20667;-77
2021/06/02 09:08:15;;;;;;;3.70;2.60;;;24.40;99.90;;;;;;4961753;28;20694;-79
2021/06/02 09:10:42;;;;;;;5.33;2.90;;;24.50;99.90;;;;;;4956209;29;20225;-79
2021/06/02 09:13:15;;;;;;;4.43;2.97;;;24.70;99.90;;;;;;4947189;29;20269;-78
2021/06/02 09:15:43;;;;;;;4.40;2.80;;;24.50;99.90;;;;;;4905661;29;20301;-78
2021/06/02 09:18:13;;;;;;;4.30;2.80;;;24.30;99.90;;;;;;4905164;29;20196;-78
2021/06/02 09:20:44;;;;;;;3.60;2.40;;;24.10;99.90;;;;;;4920618;29;20217;-78
2021/06/02 09:23:32;;;;;;;4.00;2.50;;;24.10;99.90;;;;;;4921145;29;20178;-79
2021/06/02 09:25:58;;;;;;;4.73;2.80;;;24.20;99.90;;;;;;4937726;29;20292;-79
2021/06/02 09:28:46;;;;;;;3.80;2.90;;;24.40;99.90;;;;;;4936007;29;20182;-78
2021/06/02 09:31:44;;;;;;;4.20;2.70;;;24.40;99.90;;;;;;4935909;29;20289;-78
2021/06/02 09:34:22;;;;;;;4.00;2.87;;;24.70;99.90;;;;;;4936219;29;20685;-79
2021/06/02 09:36:53;;;;;;;5.40;2.20;;;24.60;99.90;;;;;;4950500;29;20178;-78
2021/06/02 09:39:20;;;;;;;3.60;2.47;;;24.60;99.90;;;;;;4955810;29;20539;-78
2021/06/02 09:41:53;;;;;;;5.50;2.20;;;24.50;99.90;;;;;;4955509;29;20702;-78
2021/06/02 09:44:20;;;;;;;5.00;2.60;;;24.40;99.90;;;;;;4963596;28;20182;-78
2021/06/02 09:46:58;;;;;;;2.60;1.93;;;24.50;99.90;;;;;;4920770;29;20310;-76
2021/06/02 09:49:24;;;;;;;3.63;2.10;;;24.60;99.90;;;;;;4935927;29;20582;-79
2021/06/02 09:51:49;;;;;;;3.10;1.63;;;24.60;99.90;;;;;;4936847;29;20201;-78
2021/06/02 09:54:15;;;;;;;5.03;2.20;;;24.60;99.90;;;;;;4936970;29;20182;-77
2021/06/02 09:56:42;;;;;;;4.00;1.90;;;24.70;99.90;;;;;;4936190;29;20197;-76
2021/06/02 09:59:09;;;;;;;3.10;2.30;;;24.60;99.90;;;;;;4934726;29;20531;-76
2021/06/02 10:01:54;;;;;;;2.40;1.90;;;24.60;99.90;;;;;;4934837;29;20261;-77
2021/06/02 10:04:27;;;;;;;2.87;1.93;;;24.80;99.90;;;;;;4950603;29;20191;-77
2021/06/02 10:06:52;;;;;;;5.87;3.30;;;24.90;99.90;;;;;;4935510;29;20342;-76
2021/06/02 10:09:28;;;;;;;2.97;1.97;;;24.90;99.90;;;;;;4934757;29;20294;-77
2021/06/02 10:12:05;;;;;;;6.17;2.00;;;25.00;99.90;;;;;;4919133;29;20273;-77
2021/06/02 10:14:31;;;;;;;4.83;2.40;;;25.10;99.90;;;;;;4903749;29;20177;-76
2021/06/02 10:16:56;;;;;;;3.03;2.07;;;25.10;99.90;;;;;;4903068;29;20689;-77
2021/06/02 10:19:42;;;;;;;2.40;1.80;;;25.10;99.90;;;;;;4918520;29;20170;-77
2021/06/02 10:22:21;;;;;;;3.03;1.50;;;25.20;99.90;;;;;;4924148;29;20202;-77
2021/06/02 10:24:47;;;;;;;4.43;1.90;;;25.30;99.90;;;;;;4934232;29;20650;-76
2021/06/02 10:27:13;;;;;;;4.17;1.87;;;25.40;99.90;;;;;;4902430;29;20710;-76
2021/06/02 10:29:38;;;;;;;2.90;1.60;;;25.40;99.90;;;;;;4933700;29;20175;-76
2021/06/02 10:32:05;;;;;;;2.07;1.70;;;25.50;99.90;;;;;;4933943;29;20201;-77
2021/06/02 10:34:30;;;;;;;1.93;1.50;;;25.50;99.90;;;;;;4934684;29;20262;-77
2021/06/02 10:36:56;;;;;;;1.67;1.30;;;25.50;99.90;;;;;;4903154;29;20607;-77
2021/06/02 10:39:21;;;;;;;2.27;1.70;;;25.70;99.90;;;;;;4918856;29;20266;-78
2021/06/02 10:41:51;;;;;;;3.78;1.70;;;25.80;99.90;;;;;;4918815;29;20233;-78
2021/06/02 10:44:19;;;;;;;1.87;1.30;;;25.90;99.90;;;;;;4934422;29;20189;-78
2021/06/02 10:46:46;;;;;;;1.73;1.00;;;26.10;99.90;;;;;;4902640;29;20214;-77
2021/06/02 10:49:12;;;;;;;1.75;1.17;;;26.10;99.00;;;;;;4892695;29;20682;-76
2021/06/02 10:51:37;;;;;;;1.40;1.20;;;25.90;97.50;;;;;;4918415;29;20222;-76
2021/06/02 10:54:16;;;;;;;2.05;1.20;;;25.90;97.40;;;;;;4935791;29;20182;-76
2021/06/02 10:57:02;;;;;;;2.23;1.10;;;26.00;97.20;;;;;;4930958;29;20199;-76
2021/06/02 10:59:32;;;;;;;4.03;1.20;;;26.20;96.80;;;;;;4908865;29;20191;-76
2021/06/02 11:02:11;;;;;;;2.13;1.02;;;26.30;92.70;;;;;;4915328;29;20246;-77
2021/06/02 11:04:55;;;;;;;1.92;1.10;;;26.30;92.90;;;;;;4915130;29;20182;-76
2021/06/02 11:07:29;;;;;;;1.30;1.00;;;26.30;91.30;;;;;;4916008;29;20183;-76
2021/06/02 11:09:56;;;;;;;1.57;1.10;;;26.20;94.10;;;;;;4925886;29;20241;-76
2021/06/02 11:12:23;;;;;;;1.53;1.10;;;26.30;93.50;;;;;;4918514;29;20171;-77
2021/06/02 11:14:49;;;;;;;1.50;1.10;;;26.30;92.40;;;;;;4918491;29;20241;-76
2021/06/02 11:17:16;;;;;;;2.00;1.20;;;26.40;93.10;;;;;;4934134;29;20178;-77
2021/06/02 11:19:50;;;;;;;2.00;0.98;;;26.50;93.30;;;;;;4918649;29;20720;-78
2021/06/02 11:22:20;;;;;;;2.13;1.20;;;26.70;91.10;;;;;;4918258;29;20193;-78
2021/06/02 11:24:46;;;;;;;1.27;1.00;;;26.60;87.60;;;;;;4933869;29;20607;-78
2021/06/02 11:27:15;;;;;;;2.63;1.00;;;26.50;89.40;;;;;;4934134;29;20218;-77
2021/06/02 11:29:49;;;;;;;2.13;0.90;;;26.30;89.60;;;;;;4934751;29;20323;-77
2021/06/02 11:32:15;;;;;;;1.48;1.02;;;26.30;87.70;;;;;;4934896;29;20198;-78
2021/06/02 11:34:42;;;;;;;1.20;1.00;;;26.40;88.10;;;;;;4920574;29;20186;-79
2021/06/02 11:37:08;;;;;;;2.08;0.85;;;26.50;87.90;;;;;;4933439;29;20190;-80
2021/06/02 11:39:36;;;;;;;1.63;1.05;;;26.60;85.90;;;;;;4931808;29;20182;-81
2021/06/02 11:42:03;;;;;;;1.42;1.30;;;26.70;86.80;;;;;;4936982;29;20277;-81
2021/06/02 11:44:32;;;;;;;1.20;0.80;;;26.60;84.30;;;;;;4936838;29;20561;-81
2021/06/02 11:46:58;;;;;;;1.10;1.00;;;26.60;85.90;;;;;;4936385;29;20201;-81
2021/06/02 11:49:27;;;;;;;1.02;0.90;;;26.60;85.30;;;;;;4936189;29;20745;-81
2021/06/02 11:51:55;;;;;;;1.50;0.80;;;26.60;83.70;;;;;;4935704;29;20595;-79
2021/06/02 11:54:21;;;;;;;1.83;0.80;;;26.60;85.50;;;;;;4937893;29;20270;-80
2021/06/02 11:56:47;;;;;;;1.15;1.05;;;26.50;85.80;;;;;;4905206;29;20643;-80
2021/06/02 11:59:12;;;;;;;1.05;0.90;;;26.60;85.00;;;;;;4922066;29;20238;-81
2021/06/02 12:01:38;;;;;;;1.50;1.10;;;26.60;85.00;;;;;;4920361;29;20237;-80
2021/06/02 12:04:03;;;;;;;1.30;1.08;;;26.60;84.10;;;;;;4922070;29;20189;-81
2021/06/02 12:06:30;;;;;;;1.17;1.08;;;26.60;86.00;;;;;;4971443;28;20216;-80
2021/06/02 12:08:56;;;;;;;1.85;1.05;;;26.50;83.40;;;;;;4969510;28;20177;-84
2021/06/02 12:11:21;;;;;;;1.23;1.00;;;26.40;83.00;;;;;;4970723;28;20213;-77
2021/06/02 12:13:47;;;;;;;1.02;0.82;;;26.40;89.40;;;;;;4972409;28;20269;-77
2021/06/02 12:16:14;;;;;;;1.35;1.20;;;26.40;86.30;;;;;;4972721;28;20213;-78
2021/06/02 12:18:45;;;;;;;1.30;1.00;;;26.40;87.20;;;;;;4972398;28;20208;-78
2021/06/02 12:21:21;;;;;;;3.28;1.20;;;26.70;87.10;;;;;;4939893;29;20270;-77
2021/06/02 12:24:03;;;;;;;1.43;0.90;;;26.70;86.80;;;;;;4952194;29;20177;-77
2021/06/02 12:26:35;;;;;;;2.25;1.30;;;26.90;85.20;;;;;;4952365;28;20209;-77
2021/06/02 12:29:05;;;;;;;1.77;1.20;;;26.80;82.80;;;;;;4936809;29;20189;-77
2021/06/02 12:31:34;;;;;;;1.55;1.17;;;26.80;84.60;;;;;;4951982;29;20224;-78
2021/06/02 12:34:23;;;;;;;1.55;1.10;;;26.80;86.30;;;;;;4922567;29;20193;-79
2021/06/02 12:36:56;;;;;;;2.50;1.00;;;26.90;83.50;;;;;;4932052;29;20210;-80
2021/06/02 12:39:23;;;;;;;1.83;1.40;;;26.80;86.00;;;;;;4947672;29;20194;-80
2021/06/02 12:41:50;;;;;;;1.75;1.20;;;26.80;83.10;;;;;;4944476;29;20209;-80
2021/06/02 12:44:24;;;;;;;1.33;1.02;;;26.70;83.20;;;;;;4945108;29;20182;-79
2021/06/02 12:47:00;;;;;;;2.72;1.15;;;26.70;86.80;;;;;;4943542;29;20205;-81
2021/06/02 12:49:25;;;;;;;1.35;1.13;;;26.90;84.00;;;;;;4947751;29;20828;-79
2021/06/02 12:51:55;;;;;;;4.43;1.35;;;26.90;84.30;;;;;;4925480;29;20207;-81
2021/06/02 12:54:28;;;;;;;2.47;1.40;;;27.00;83.60;;;;;;4926580;28;20960;-80
2021/06/02 12:56:54;;;;;;;1.38;1.10;;;26.70;83.80;;;;;;4941258;29;20452;-79
2021/06/02 12:59:19;;;;;;;1.35;1.10;;;26.60;87.60;;;;;;4940144;29;20190;-79
2021/06/02 13:01:45;;;;;;;1.98;1.30;;;26.50;88.80;;;;;;4944798;29;20267;-80
2021/06/02 13:04:13;;;;;;;1.35;1.02;;;26.40;87.30;;;;;;4936547;29;20174;-78
2021/06/02 13:06:39;;;;;;;1.38;1.20;;;26.60;88.00;;;;;;4939926;29;20202;-78
2021/06/02 13:09:09;;;;;;;1.58;1.05;;;26.80;87.30;;;;;;4939023;29;20249;-78
2021/06/02 13:11:34;;;;;;;2.95;1.40;;;27.00;85.40;;;;;;4954628;29;20732;-78
2021/06/02 13:14:01;;;;;;;0.82;0.82;;;27.10;82.70;;;;;;4954455;29;20178;-78
2021/06/02 13:16:27;;;;;;;1.38;1.25;;;27.10;84.10;;;;;;4954520;28;20174;-78
2021/06/02 13:19:03;;;;;;;1.20;1.02;;;27.10;84.90;;;;;;4938374;29;20236;-78
2021/06/02 13:21:32;;;;;;;2.42;1.10;;;27.30;85.40;;;;;;4954324;28;20740;-78